createdAt,value
2018-12-23T00:02:06.293Z,6.53
2018-12-23T00:04:35.452Z,6.60
2018-12-23T00:07:04.680Z,7.60
2018-12-23T00:09:33.912Z,6.10
2018-12-23T00:12:03.124Z,7.97
2018-12-23T00:14:32.325Z,7.43
2018-12-23T00:17:01.482Z,7.73
2018-12-23T00:19:30.661Z,8.70
2018-12-23T00:21:59.849Z,12.23
2018-12-23T00:24:28.944Z,10.43
2018-12-23T00:26:58.190Z,8.47
2018-12-23T00:29:27.480Z,8.37
2018-12-23T00:31:56.649Z,8.33
2018-12-23T00:34:25.941Z,8.33
2018-12-23T00:36:55.188Z,8.80
2018-12-23T00:39:24.337Z,10.20
2018-12-23T00:41:53.738Z,8.00
2018-12-23T00:44:22.975Z,6.70
2018-12-23T00:46:52.191Z,6.60
2018-12-23T00:49:21.383Z,6.60
2018-12-23T00:51:50.659Z,8.20
2018-12-23T00:54:19.872Z,7.93
2018-12-23T00:56:49.064Z,7.83
2018-12-23T00:59:18.232Z,7.27
2018-12-23T01:01:47.356Z,7.63
2018-12-23T01:04:16.500Z,7.93
2018-12-23T01:06:45.695Z,7.67
2018-12-23T01:09:14.934Z,9.03
2018-12-23T01:11:44.179Z,8.43
2018-12-23T01:14:13.324Z,7.67
2018-12-23T01:16:42.461Z,10.40
2018-12-23T01:19:11.652Z,8.70
2018-12-23T01:21:40.848Z,9.57
2018-12-23T01:24:10.071Z,8.60
2018-12-23T01:26:39.315Z,8.90
2018-12-23T01:29:08.584Z,8.80
2018-12-23T01:31:37.735Z,8.80
2018-12-23T01:34:06.973Z,9.47
2018-12-23T01:36:36.178Z,9.43
2018-12-23T01:39:06.841Z,8.93
2018-12-23T01:41:36.016Z,9.57
2018-12-23T01:44:05.154Z,9.30
2018-12-23T01:46:34.377Z,9.57
2018-12-23T01:49:03.620Z,9.77
2018-12-23T01:51:32.905Z,10.80
2018-12-23T01:54:02.467Z,9.70
2018-12-23T01:56:31.812Z,10.50
2018-12-23T01:59:01.017Z,9.83
2018-12-23T02:01:30.293Z,10.70
2018-12-23T02:03:59.476Z,8.80
2018-12-23T02:06:28.721Z,10.07
2018-12-23T02:08:57.984Z,8.97
2018-12-23T02:11:27.232Z,9.03
2018-12-23T02:13:56.396Z,9.30
2018-12-23T02:16:25.541Z,9.60
2018-12-23T02:18:54.810Z,9.50
2018-12-23T02:21:24.075Z,10.23
2018-12-23T02:23:53.189Z,10.70
2018-12-23T02:26:22.461Z,11.27
2018-12-23T02:28:51.698Z,13.20
2018-12-23T02:31:20.885Z,11.80
2018-12-23T02:33:50.031Z,12.17
2018-12-23T02:36:19.197Z,12.80
2018-12-23T02:38:48.615Z,12.23
2018-12-23T02:41:17.820Z,13.90
2018-12-23T02:43:47.010Z,13.10
2018-12-23T02:46:16.260Z,14.27
2018-12-23T02:48:45.814Z,12.80
2018-12-23T02:51:15.017Z,11.67
2018-12-23T02:53:44.466Z,11.60
2018-12-23T02:56:13.690Z,11.03
2018-12-23T02:58:42.947Z,13.60
2018-12-23T03:01:12.138Z,11.80
2018-12-23T03:03:41.401Z,12.40
2018-12-23T03:06:10.575Z,13.33
2018-12-23T03:08:39.664Z,12.67
2018-12-23T03:11:08.816Z,13.43
2018-12-23T03:13:38.010Z,10.87
2018-12-23T03:16:07.204Z,12.73
2018-12-23T03:18:36.430Z,12.57
2018-12-23T03:21:05.674Z,10.57
2018-12-23T03:23:34.806Z,12.50
2018-12-23T03:26:04.047Z,9.77
2018-12-23T03:28:33.225Z,9.43
2018-12-23T03:31:02.515Z,19.53
2018-12-23T03:33:31.704Z,9.97
2018-12-23T03:36:00.772Z,7.90
2018-12-23T03:38:29.880Z,10.37
2018-12-23T03:40:59.091Z,6.00
2018-12-23T03:43:28.344Z,7.07
2018-12-23T03:45:57.487Z,12.70
2018-12-23T03:48:26.697Z,5.30
2018-12-23T03:50:55.922Z,5.70
2018-12-23T03:53:25.003Z,5.57
2018-12-23T03:55:54.184Z,8.60
2018-12-23T03:58:23.354Z,4.07
2018-12-23T04:00:52.564Z,5.57
2018-12-23T04:03:21.735Z,6.40
2018-12-23T04:05:50.867Z,7.57
2018-12-23T04:08:20.076Z,4.77
2018-12-23T04:10:49.241Z,5.27
2018-12-23T04:13:18.380Z,5.07
2018-12-23T04:15:47.573Z,5.27
2018-12-23T04:18:16.842Z,4.93
2018-12-23T04:20:46.092Z,5.47
2018-12-23T04:23:15.188Z,7.63
2018-12-23T04:25:44.373Z,4.37
2018-12-23T04:28:13.557Z,4.53
2018-12-23T04:30:42.803Z,8.60
2018-12-23T04:33:11.934Z,5.63
2018-12-23T04:35:41.136Z,4.37
2018-12-23T04:38:10.301Z,4.43
2018-12-23T04:40:39.460Z,4.47
2018-12-23T04:43:08.698Z,4.70
2018-12-23T04:45:38.127Z,5.10
2018-12-23T04:48:07.398Z,3.60
2018-12-23T04:50:36.746Z,7.27
2018-12-23T04:53:06.026Z,4.77
2018-12-23T04:55:35.393Z,7.60
2018-12-23T04:58:47.991Z,5.00
2018-12-23T05:01:37.614Z,5.30
2018-12-23T05:04:27.145Z,5.37
2018-12-23T05:07:16.741Z,4.00
2018-12-23T05:10:06.267Z,5.87
2018-12-23T05:12:56.102Z,3.70
2018-12-23T05:15:45.654Z,4.03
2018-12-23T05:18:35.214Z,4.57
2018-12-23T05:21:24.742Z,4.80
2018-12-23T05:24:14.273Z,3.77
2018-12-23T05:27:04.116Z,5.10
2018-12-23T05:29:53.637Z,5.43
2018-12-23T05:32:43.142Z,5.50
2018-12-23T05:35:33.521Z,3.83
2018-12-23T05:38:41.940Z,3.87
2018-12-23T05:41:31.441Z,5.30
2018-12-23T05:44:20.976Z,4.53
2018-12-23T05:47:10.544Z,4.90
2018-12-23T05:49:53.090Z,5.13
2018-12-23T05:52:42.581Z,4.87
2018-12-23T05:55:30.713Z,8.67
2018-12-23T05:58:20.220Z,3.53
2018-12-23T06:01:09.749Z,7.83
2018-12-23T06:03:59.579Z,3.97
2018-12-23T06:06:49.177Z,5.20
2018-12-23T06:09:39.030Z,4.87
2018-12-23T06:12:47.500Z,3.60
2018-12-23T06:15:37.028Z,4.80
2018-12-23T06:18:26.849Z,3.40
2018-12-23T06:21:16.372Z,5.13
2018-12-23T06:24:05.936Z,7.10
2018-12-23T06:26:55.765Z,7.43
2018-12-23T06:29:45.585Z,7.10
2018-12-23T06:35:43.425Z,3.93
2018-12-23T06:38:51.915Z,6.37
2018-12-23T06:41:41.643Z,7.03
2018-12-23T06:44:31.458Z,7.30
2018-12-23T06:47:21.649Z,8.47
2018-12-23T06:50:03.643Z,5.93
2018-12-23T06:52:46.013Z,4.87
2018-12-23T06:58:32.459Z,9.93
2018-12-23T07:01:22.038Z,4.83
2018-12-23T07:04:11.557Z,5.90
2018-12-23T07:07:01.135Z,5.23
2018-12-23T07:09:50.625Z,3.90
2018-12-23T07:12:40.449Z,6.37
2018-12-23T07:15:29.983Z,7.43
2018-12-23T07:18:19.485Z,6.83
2018-12-23T07:21:08.999Z,4.43
2018-12-23T07:23:58.599Z,6.00
2018-12-23T07:26:48.166Z,5.57
2018-12-23T07:29:37.905Z,9.60
2018-12-23T07:32:27.789Z,9.63
2018-12-23T07:35:17.335Z,10.23
2018-12-23T07:38:06.883Z,9.20
2018-12-23T07:40:56.486Z,9.30
2018-12-23T07:47:14.815Z,7.30
2018-12-23T07:49:56.841Z,4.37
2018-12-23T07:52:46.385Z,7.10
2018-12-23T07:55:35.925Z,7.70
2018-12-23T07:58:25.487Z,10.77
2018-12-23T08:01:14.995Z,3.50
2018-12-23T08:04:04.523Z,7.33
2018-12-23T08:06:54.511Z,8.53
2018-12-23T08:09:44.031Z,4.10
2018-12-23T08:12:33.589Z,5.90
2018-12-23T08:15:23.117Z,12.90
2018-12-23T08:18:12.676Z,3.53
2018-12-23T08:21:02.218Z,4.90
2018-12-23T08:23:51.783Z,10.40
2018-12-23T08:26:41.625Z,6.80
2018-12-23T08:29:31.297Z,6.80
2018-12-23T08:32:20.930Z,6.03
2018-12-23T08:35:10.442Z,8.73
2018-12-23T08:38:00.596Z,7.70
2018-12-23T08:40:50.135Z,11.13
2018-12-23T08:47:09.042Z,10.40
2018-12-23T08:49:58.569Z,7.87
2018-12-23T08:52:40.686Z,9.50
2018-12-23T08:55:30.206Z,9.33
2018-12-23T08:58:19.763Z,7.47
2018-12-23T09:01:09.271Z,7.40
2018-12-23T09:03:59.055Z,10.53
2018-12-23T09:06:48.593Z,6.83
2018-12-23T09:09:58.035Z,7.40
2018-12-23T09:12:47.562Z,13.53
2018-12-23T09:15:37.077Z,16.53
2018-12-23T09:18:26.602Z,11.20
2018-12-23T09:24:32.267Z,12.33
2018-12-23T09:27:21.835Z,13.17
2018-12-23T09:30:11.364Z,14.00
2018-12-23T09:33:00.894Z,17.30
2018-12-23T09:35:50.479Z,10.80
2018-12-23T09:38:40.017Z,14.93
2018-12-23T09:44:37.915Z,16.17
2018-12-23T09:47:27.500Z,7.53
2018-12-23T09:50:10.110Z,13.23
2018-12-23T09:52:59.662Z,23.80
2018-12-23T09:55:49.206Z,8.53
2018-12-23T09:58:38.735Z,15.67
2018-12-23T10:01:28.607Z,18.50
2018-12-23T10:04:18.137Z,15.70
2018-12-23T10:06:48.563Z,14.90
2018-12-23T10:09:19.049Z,9.30
2018-12-23T10:11:49.455Z,18.37
2018-12-23T10:14:20.637Z,11.47
2018-12-23T10:16:51.328Z,13.37
2018-12-23T10:19:22.986Z,10.30
2018-12-23T10:21:53.688Z,12.30
2018-12-23T10:24:24.149Z,7.43
2018-12-23T10:26:54.864Z,18.50
2018-12-23T10:29:25.426Z,10.07
2018-12-23T10:31:55.873Z,8.80
2018-12-23T10:34:26.267Z,10.63
2018-12-23T10:36:56.716Z,6.53
2018-12-23T10:39:27.417Z,10.60
2018-12-23T10:41:57.784Z,8.93
2018-12-23T10:44:28.215Z,8.50
2018-12-23T10:47:00.102Z,14.47
2018-12-23T10:49:30.758Z,11.73
2018-12-23T10:52:01.145Z,12.20
2018-12-23T10:54:31.593Z,14.70
2018-12-23T10:57:02.036Z,19.20
2018-12-23T10:59:32.462Z,10.20
2018-12-23T11:02:02.923Z,12.47
2018-12-23T11:04:33.277Z,19.50
2018-12-23T11:07:04.047Z,16.33
2018-12-23T11:09:34.411Z,12.70
2018-12-23T11:12:04.859Z,10.70
2018-12-23T11:14:35.338Z,12.57
2018-12-23T11:17:05.795Z,13.27
2018-12-23T11:19:36.199Z,15.83
2018-12-23T11:22:06.686Z,12.13
2018-12-23T11:24:37.071Z,13.07
2018-12-23T11:27:07.514Z,15.77
2018-12-23T11:29:37.899Z,17.63
2018-12-23T11:32:08.332Z,23.63
2018-12-23T11:34:38.751Z,19.60
2018-12-23T11:37:09.244Z,16.20
2018-12-23T11:39:39.983Z,15.77
2018-12-23T11:42:10.406Z,19.23
2018-12-23T11:44:40.779Z,19.47
2018-12-23T11:47:11.183Z,25.17
2018-12-23T11:49:41.985Z,17.47
2018-12-23T11:52:12.419Z,12.50
2018-12-23T11:54:43.184Z,17.73
2018-12-23T11:57:13.629Z,21.63
2018-12-23T11:59:44.042Z,17.40
2018-12-23T12:02:15.403Z,18.77
2018-12-23T12:04:46.120Z,16.67
2018-12-23T12:07:16.540Z,15.80
2018-12-23T12:09:46.948Z,15.77
2018-12-23T12:12:17.902Z,14.53
2018-12-23T12:14:48.303Z,17.90
2018-12-23T12:17:18.695Z,15.57
2018-12-23T12:19:49.113Z,18.23
2018-12-23T12:22:19.577Z,17.87
2018-12-23T12:24:50.174Z,16.63
2018-12-23T12:27:20.574Z,15.60
2018-12-23T12:29:51.265Z,11.93
2018-12-23T12:32:21.645Z,14.20
2018-12-23T12:34:52.121Z,12.30
2018-12-23T12:37:23.066Z,18.40
2018-12-23T12:39:53.543Z,22.57
2018-12-23T12:42:24.411Z,13.33
2018-12-23T12:44:54.849Z,19.87
2018-12-23T12:47:25.255Z,15.40
2018-12-23T12:49:55.631Z,16.20
2018-12-23T12:52:26.394Z,18.17
2018-12-23T12:54:56.795Z,24.27
2018-12-23T12:57:27.238Z,23.90
2018-12-23T12:59:57.675Z,22.20
2018-12-23T13:02:28.097Z,22.37
2018-12-23T13:04:58.509Z,34.40
2018-12-23T13:07:28.876Z,21.13
2018-12-23T13:09:59.312Z,20.77
2018-12-23T13:12:30.042Z,21.67
2018-12-23T13:15:00.550Z,25.27
2018-12-23T13:17:30.943Z,23.00
2018-12-23T13:20:01.320Z,21.67
2018-12-23T13:22:31.822Z,25.33
2018-12-23T13:25:02.294Z,24.27
2018-12-23T13:27:32.685Z,26.07
2018-12-23T13:30:03.110Z,22.67
2018-12-23T13:32:33.857Z,28.93
2018-12-23T13:35:04.381Z,30.33
2018-12-23T13:37:35.075Z,22.93
2018-12-23T13:40:58.239Z,29.13
2018-12-23T13:44:25.750Z,27.23
2018-12-23T13:47:40.008Z,27.47
2018-12-23T13:51:19.213Z,28.40
2018-12-23T13:54:49.677Z,24.03
2018-12-23T13:58:26.608Z,22.73
2018-12-23T14:01:38.677Z,20.90
2018-12-23T14:05:16.974Z,27.60
2018-12-23T14:08:32.302Z,25.57
2018-12-23T14:11:43.606Z,25.30
2018-12-23T14:14:13.988Z,24.03
2018-12-23T14:16:44.678Z,26.73
2018-12-23T14:19:15.122Z,20.30
2018-12-23T14:21:45.868Z,23.63
2018-12-23T14:24:16.247Z,25.87
2018-12-23T14:26:46.685Z,22.23
2018-12-23T14:29:17.293Z,18.67
2018-12-23T14:31:47.711Z,19.40
2018-12-23T14:34:18.110Z,20.40
2018-12-23T14:36:48.609Z,22.70
2018-12-23T14:39:26.120Z,22.83
2018-12-23T14:41:54.494Z,21.83
2018-12-23T14:44:24.650Z,25.03
2018-12-23T14:46:55.002Z,27.20
2018-12-23T14:49:25.473Z,28.60
2018-12-23T14:51:55.882Z,23.97
2018-12-23T14:54:26.243Z,22.23
2018-12-23T14:56:56.703Z,23.07
2018-12-23T14:59:27.341Z,23.43
2018-12-23T15:01:57.755Z,23.87
2018-12-23T15:04:28.256Z,26.07
2018-12-23T15:06:58.658Z,25.20
2018-12-23T15:09:34.171Z,17.27
2018-12-23T15:12:01.628Z,21.00
2018-12-23T15:14:32.396Z,19.90
2018-12-23T15:17:02.907Z,27.50
2018-12-23T15:19:33.316Z,28.10
2018-12-23T15:22:03.715Z,20.50
2018-12-23T15:24:34.122Z,22.67
2018-12-23T15:27:04.517Z,20.70
2018-12-23T15:29:34.941Z,19.10
2018-12-23T15:32:05.321Z,21.23
2018-12-23T15:34:35.895Z,22.47
2018-12-23T15:37:06.629Z,24.70
2018-12-23T15:39:42.610Z,31.60
2018-12-23T15:42:09.225Z,25.20
2018-12-23T15:44:39.651Z,24.60
2018-12-23T15:47:10.456Z,25.53
2018-12-23T15:49:41.179Z,25.67
2018-12-23T15:52:11.585Z,18.97
2018-12-23T15:54:46.232Z,21.30
2018-12-23T15:57:14.494Z,18.07
2018-12-23T15:59:44.927Z,18.97
2018-12-23T16:02:15.674Z,18.10
2018-12-23T16:04:46.179Z,23.83
2018-12-23T16:07:16.561Z,21.10
2018-12-23T16:09:51.162Z,25.73
2018-12-23T16:12:19.343Z,17.83
2018-12-23T16:14:49.788Z,26.60
2018-12-23T16:17:20.180Z,25.93
2018-12-23T16:19:50.769Z,19.67
2018-12-23T16:22:21.173Z,24.27
2018-12-23T16:24:51.604Z,20.77
2018-12-23T16:27:22.007Z,24.10
2018-12-23T16:29:52.707Z,29.40
2018-12-23T16:32:23.105Z,22.07
2018-12-23T16:34:53.484Z,20.93
2018-12-23T16:37:23.850Z,24.67
2018-12-23T16:39:59.529Z,20.03
2018-12-23T16:42:26.366Z,27.53
2018-12-23T16:44:57.034Z,29.63
2018-12-23T16:47:27.465Z,17.80
2018-12-23T16:49:57.848Z,14.83
2018-12-23T16:52:28.666Z,24.37
2018-12-23T16:54:59.051Z,24.87
2018-12-23T16:57:29.432Z,15.73
2018-12-23T16:59:59.828Z,14.93
2018-12-23T17:02:30.500Z,17.73
2018-12-23T17:05:00.845Z,18.90
2018-12-23T17:07:31.231Z,17.00
2018-12-23T17:10:08.212Z,17.30
2018-12-23T17:12:33.890Z,20.23
2018-12-23T17:15:04.385Z,20.80
2018-12-23T17:17:34.727Z,13.90
2018-12-23T17:20:06.894Z,17.83
2018-12-23T17:22:37.600Z,14.33
2018-12-23T17:25:07.983Z,15.27
2018-12-23T17:27:38.439Z,15.80
2018-12-23T17:30:09.998Z,12.03
2018-12-23T17:32:40.734Z,22.87
2018-12-23T17:35:11.101Z,16.80
2018-12-23T17:37:41.484Z,15.87
2018-12-23T17:40:16.441Z,13.27
2018-12-23T17:42:44.003Z,18.87
2018-12-23T17:45:14.382Z,15.33
2018-12-23T17:47:44.738Z,11.17
2018-12-23T17:50:15.148Z,14.37
2018-12-23T17:52:45.528Z,15.93
2018-12-23T17:55:16.147Z,16.47
2018-12-23T17:57:46.523Z,17.53
2018-12-23T18:00:16.901Z,15.60
2018-12-23T18:02:47.305Z,17.73
2018-12-23T18:05:17.708Z,14.80
2018-12-23T18:07:48.035Z,18.60
2018-12-23T18:10:25.018Z,15.10
2018-12-23T18:12:50.653Z,21.10
2018-12-23T18:15:21.091Z,15.60
2018-12-23T18:17:51.431Z,13.90
2018-12-23T18:20:21.803Z,14.70
2018-12-23T18:22:52.226Z,13.83
2018-12-23T18:25:22.602Z,20.47
2018-12-23T18:27:53.357Z,13.30
2018-12-23T18:30:23.739Z,13.73
2018-12-23T18:32:54.139Z,15.53
2018-12-23T18:35:24.598Z,17.20
2018-12-23T18:37:55.387Z,17.60
2018-12-23T18:40:33.120Z,11.13
2018-12-23T18:42:57.944Z,13.17
2018-12-23T18:45:28.703Z,14.87
2018-12-23T18:47:59.075Z,18.57
2018-12-23T18:50:29.437Z,11.67
2018-12-23T18:52:59.900Z,16.93
2018-12-23T18:55:35.357Z,19.63
2018-12-23T18:58:06.142Z,19.70
2018-12-23T19:00:36.571Z,14.17
2018-12-23T19:03:07.313Z,17.23
2018-12-23T19:05:37.710Z,19.53
2018-12-23T19:08:14.742Z,20.30
2018-12-23T19:11:41.709Z,20.93
2018-12-23T19:15:29.517Z,20.30
2018-12-23T19:19:05.351Z,23.67
2018-12-23T19:22:34.760Z,15.97
2018-12-23T19:26:15.898Z,22.30
2018-12-23T19:29:37.131Z,23.77
2018-12-23T19:32:54.394Z,22.13
2018-12-23T19:36:19.405Z,18.27
2018-12-23T19:39:41.431Z,22.17
2018-12-23T19:43:12.419Z,23.37
2018-12-23T19:46:37.216Z,18.50
2018-12-23T19:49:51.209Z,21.40
2018-12-23T19:53:16.598Z,13.67
2018-12-23T19:56:44.578Z,16.77
2018-12-23T20:00:23.508Z,15.27
2018-12-23T20:03:37.609Z,18.73
2018-12-23T20:06:55.403Z,17.90
2018-12-23T20:09:58.018Z,16.37
2018-12-23T20:13:17.012Z,15.13
2018-12-23T20:16:31.907Z,14.47
2018-12-23T20:19:55.429Z,16.17
2018-12-23T20:23:10.661Z,12.30
2018-12-23T20:26:49.707Z,14.73
2018-12-23T20:30:08.455Z,14.60
2018-12-23T20:33:36.980Z,9.70
2018-12-23T20:37:02.706Z,12.87
2018-12-23T20:40:27.693Z,12.07
2018-12-23T20:43:38.050Z,16.30
2018-12-23T20:47:02.115Z,20.90
2018-12-23T20:50:28.403Z,17.77
2018-12-23T20:54:17.097Z,24.40
2018-12-23T20:57:36.438Z,20.43
2018-12-23T21:00:55.307Z,17.50
2018-12-23T21:04:32.695Z,17.50
2018-12-23T21:08:24.606Z,20.07
2018-12-23T21:12:08.418Z,20.53
2018-12-23T21:15:25.929Z,21.43
2018-12-23T21:18:57.433Z,14.37
2018-12-23T21:22:06.691Z,19.83
2018-12-23T21:25:11.114Z,18.13
2018-12-23T21:28:25.558Z,13.60
2018-12-23T21:31:36.158Z,16.03
2018-12-23T21:35:14.040Z,14.90
2018-12-23T21:38:17.630Z,14.70
2018-12-23T21:41:39.463Z,9.43
2018-12-23T21:45:15.441Z,10.97
2018-12-23T21:48:39.777Z,11.10
2018-12-23T21:52:09.453Z,12.53
2018-12-23T21:55:41.437Z,10.80
2018-12-23T21:58:58.258Z,14.73
2018-12-23T22:02:09.664Z,11.77
2018-12-23T22:05:07.990Z,8.90
2018-12-23T22:08:35.853Z,9.00
2018-12-23T22:12:03.705Z,9.23
2018-12-23T22:14:53.233Z,14.47
2018-12-23T22:17:42.765Z,20.70
2018-12-23T22:20:32.292Z,9.23
2018-12-23T22:23:21.890Z,7.17
2018-12-23T22:26:11.748Z,6.00
2018-12-23T22:29:01.306Z,8.87
2018-12-23T22:31:50.796Z,6.80
2018-12-23T22:34:40.324Z,5.50
2018-12-23T22:37:29.842Z,9.33
2018-12-23T22:40:19.440Z,5.13
2018-12-23T22:43:09.207Z,6.80
2018-12-23T22:46:17.594Z,5.67
2018-12-23T22:49:07.095Z,9.73
2018-12-23T22:51:56.700Z,6.13
2018-12-23T22:54:46.346Z,7.50
2018-12-23T22:57:29.011Z,9.73
2018-12-23T23:03:15.515Z,8.90
2018-12-23T23:06:05.187Z,7.57
2018-12-23T23:08:54.717Z,10.07
2018-12-23T23:11:49.760Z,9.60
2018-12-23T23:14:35.570Z,8.67
2018-12-23T23:17:25.072Z,10.13
2018-12-23T23:20:14.611Z,10.20
2018-12-23T23:23:04.099Z,8.53
2018-12-23T23:25:53.658Z,8.97
2018-12-23T23:28:43.181Z,14.40
2018-12-23T23:31:32.703Z,12.20
2018-12-23T23:34:22.195Z,11.73
2018-12-23T23:37:11.735Z,13.13
2018-12-23T23:40:01.513Z,15.03
2018-12-23T23:42:51.070Z,11.83
2018-12-23T23:45:40.556Z,13.00
2018-12-23T23:48:30.342Z,13.03
2018-12-23T23:51:19.849Z,13.47
2018-12-23T23:54:09.406Z,12.80
2018-12-23T23:56:58.958Z,8.97
2018-12-23T23:59:48.480Z,13.90
